createdAt,value
2023-02-12T00:01:53.892Z,32.67
2023-02-12T00:04:23.090Z,31.75
2023-02-12T00:06:52.220Z,33.28
2023-02-12T00:09:21.310Z,33.65
2023-02-12T00:11:50.441Z,33.30
2023-02-12T00:14:20.345Z,32.88
2023-02-12T00:16:49.435Z,33.92
2023-02-12T00:19:18.569Z,31.92
2023-02-12T00:21:47.680Z,38.20
2023-02-12T00:24:16.782Z,41.63
2023-02-12T00:26:45.990Z,49.22
2023-02-12T00:29:15.716Z,46.72
2023-02-12T00:31:44.827Z,43.75
2023-02-12T00:34:14.132Z,39.05
2023-02-12T00:36:43.311Z,37.88
2023-02-12T00:39:13.710Z,38.13
2023-02-12T00:41:42.921Z,39.83
2023-02-12T00:44:12.036Z,39.47
2023-02-12T00:46:41.334Z,39.38
2023-02-12T00:49:10.429Z,39.63
2023-02-12T00:51:39.534Z,41.15
2023-02-12T00:54:08.780Z,37.97
2023-02-12T00:56:37.945Z,38.17
2023-02-12T00:59:07.072Z,38.70
2023-02-12T01:01:37.162Z,36.33
2023-02-12T01:04:06.523Z,35.58
2023-02-12T01:06:38.221Z,34.95
2023-02-12T01:09:07.404Z,35.97
2023-02-12T01:11:36.660Z,35.67
2023-02-12T01:14:09.238Z,35.35
2023-02-12T01:16:38.671Z,35.72
2023-02-12T01:19:08.148Z,38.30
2023-02-12T01:21:37.542Z,38.05
2023-02-12T01:24:07.262Z,43.70
2023-02-12T01:26:42.178Z,38.97
2023-02-12T01:29:16.749Z,37.95
2023-02-12T01:31:45.989Z,37.53
2023-02-12T01:34:16.085Z,38.65
2023-02-12T01:36:45.609Z,36.30
2023-02-12T01:39:16.256Z,37.92
2023-02-12T01:41:47.147Z,39.20
2023-02-12T01:44:27.195Z,38.20
2023-02-12T01:47:05.429Z,37.88
2023-02-12T01:49:42.917Z,40.05
2023-02-12T01:52:33.263Z,34.92
2023-02-12T01:55:08.880Z,35.70
2023-02-12T01:57:43.660Z,35.35
2023-02-12T02:00:24.554Z,34.17
2023-02-12T02:02:58.815Z,34.85
2023-02-12T02:05:56.867Z,34.42
2023-02-12T02:10:55.609Z,31.95
2023-02-12T02:13:42.974Z,30.83
2023-02-12T02:16:26.680Z,29.65
2023-02-12T02:19:23.794Z,30.48
2023-02-12T02:22:47.472Z,27.75
2023-02-12T02:25:47.371Z,30.02
2023-02-12T02:28:48.339Z,31.25
2023-02-12T02:31:28.523Z,29.52
2023-02-12T02:34:21.520Z,29.58
2023-02-12T02:37:21.140Z,30.67
2023-02-12T02:40:41.485Z,29.90
2023-02-12T02:43:24.932Z,30.73
2023-02-12T02:46:09.966Z,31.27
2023-02-12T02:48:54.879Z,33.30
2023-02-12T02:51:42.408Z,31.27
2023-02-12T02:54:31.788Z,36.20
2023-02-12T02:57:16.588Z,31.45
2023-02-12T03:00:14.748Z,29.10
2023-02-12T03:02:52.181Z,26.15
2023-02-12T03:05:36.686Z,25.97
2023-02-12T03:08:26.157Z,25.98
2023-02-12T03:11:16.057Z,25.08
2023-02-12T03:13:53.465Z,25.40
2023-02-12T03:16:36.369Z,27.65
2023-02-12T03:19:21.560Z,27.52
2023-02-12T03:22:10.457Z,27.02
2023-02-12T03:24:51.440Z,25.25
2023-02-12T03:27:40.387Z,25.33
2023-02-12T03:30:11.965Z,24.83
2023-02-12T03:33:05.111Z,25.45
2023-02-12T03:35:44.152Z,26.70
2023-02-12T03:38:55.032Z,25.05
2023-02-12T03:41:41.259Z,25.30
2023-02-12T03:44:29.584Z,32.28
2023-02-12T03:47:51.744Z,25.45
2023-02-12T03:51:00.407Z,25.20
2023-02-12T03:53:32.168Z,25.65
2023-02-12T03:56:35.148Z,25.20
2023-02-12T03:59:06.938Z,24.35
2023-02-12T04:01:38.226Z,23.23
2023-02-12T04:04:10.869Z,22.20
2023-02-12T04:06:41.148Z,20.92
2023-02-12T04:09:13.792Z,19.83
2023-02-12T04:12:10.532Z,21.58
2023-02-12T04:15:36.564Z,19.05
2023-02-12T04:18:39.340Z,19.27
2023-02-12T04:21:37.441Z,18.23
2023-02-12T04:27:26.307Z,18.60
2023-02-12T04:30:21.224Z,18.10
2023-02-12T04:33:01.412Z,17.58
2023-02-12T04:35:39.754Z,18.27
2023-02-12T04:38:20.411Z,17.85
2023-02-12T04:40:51.430Z,17.60
2023-02-12T04:43:34.730Z,17.13
2023-02-12T04:46:10.637Z,17.58
2023-02-12T04:48:59.788Z,16.42
2023-02-12T04:51:29.415Z,16.42
2023-02-12T04:53:58.482Z,12.80
2023-02-12T04:56:27.623Z,14.05
2023-02-12T04:58:58.748Z,12.90
2023-02-12T05:01:30.305Z,13.80
2023-02-12T05:04:00.390Z,13.55
2023-02-12T05:06:31.380Z,13.80
2023-02-12T05:09:00.485Z,12.95
2023-02-12T05:11:29.784Z,12.23
2023-02-12T05:13:59.346Z,14.10
2023-02-12T05:16:28.594Z,15.18
2023-02-12T05:18:58.034Z,12.50
2023-02-12T05:21:27.905Z,14.25
2023-02-12T05:23:57.021Z,12.70
2023-02-12T05:26:26.156Z,13.65
2023-02-12T05:28:55.216Z,13.43
2023-02-12T05:31:24.732Z,13.18
2023-02-12T05:33:55.152Z,12.20
2023-02-12T05:36:26.820Z,11.93
2023-02-12T05:39:01.256Z,11.85
2023-02-12T05:41:35.707Z,14.07
2023-02-12T05:44:07.536Z,14.15
2023-02-12T05:46:36.733Z,14.75
2023-02-12T05:49:06.222Z,13.05
2023-02-12T05:51:35.378Z,12.98
2023-02-12T05:54:07.659Z,12.00
2023-02-12T05:56:44.808Z,12.52
2023-02-12T05:59:21.994Z,12.13
2023-02-12T06:01:53.829Z,11.50
2023-02-12T06:04:29.454Z,11.75
2023-02-12T06:06:59.206Z,10.93
2023-02-12T06:09:29.100Z,10.70
2023-02-12T06:11:58.300Z,10.52
2023-02-12T06:14:28.004Z,11.43
2023-02-12T06:16:58.259Z,11.70
2023-02-12T06:19:27.583Z,11.00
2023-02-12T06:21:56.634Z,10.85
2023-02-12T06:24:25.747Z,10.02
2023-02-12T06:26:55.044Z,10.50
2023-02-12T06:29:24.597Z,9.60
2023-02-12T06:31:53.879Z,9.60
2023-02-12T06:34:23.053Z,8.73
2023-02-12T06:36:52.158Z,9.48
2023-02-12T06:39:21.275Z,9.63
2023-02-12T06:41:50.490Z,9.55
2023-02-12T06:44:19.618Z,9.75
2023-02-12T06:46:48.905Z,9.43
2023-02-12T06:49:18.058Z,9.77
2023-02-12T06:51:47.163Z,9.63
2023-02-12T06:54:19.060Z,9.73
2023-02-12T06:56:48.234Z,9.93
2023-02-12T06:59:19.043Z,8.80
2023-02-12T07:01:48.328Z,9.18
2023-02-12T07:04:17.537Z,9.05
2023-02-12T07:06:46.760Z,8.70
2023-02-12T07:09:15.950Z,11.95
2023-02-12T07:11:45.076Z,9.05
2023-02-12T07:14:18.573Z,9.50
2023-02-12T07:16:47.800Z,8.95
2023-02-12T07:19:17.504Z,8.45
2023-02-12T07:21:46.844Z,9.52
2023-02-12T07:24:19.170Z,9.60
2023-02-12T07:26:48.490Z,9.98
2023-02-12T07:29:18.213Z,9.55
2023-02-12T07:31:47.505Z,9.63
2023-02-12T07:34:16.755Z,9.20
2023-02-12T07:36:45.867Z,8.43
2023-02-12T07:39:15.255Z,7.95
2023-02-12T07:41:44.362Z,8.32
2023-02-12T07:44:14.788Z,8.90
2023-02-12T07:46:49.874Z,8.82
2023-02-12T07:49:23.864Z,8.40
2023-02-12T07:51:53.961Z,8.55
2023-02-12T07:54:23.058Z,8.48
2023-02-12T07:56:53.182Z,8.30
2023-02-12T07:59:22.442Z,7.78
2023-02-12T08:01:54.422Z,9.05
2023-02-12T08:04:26.919Z,7.60
2023-02-12T08:06:59.305Z,7.38
2023-02-12T08:09:31.902Z,7.40
2023-02-12T08:12:01.100Z,6.82
2023-02-12T08:14:30.543Z,7.22
2023-02-12T08:16:59.659Z,7.25
2023-02-12T08:19:28.852Z,7.10
2023-02-12T08:21:59.562Z,7.32
2023-02-12T08:24:28.754Z,7.28
2023-02-12T08:26:58.570Z,7.78
2023-02-12T08:29:31.589Z,7.40
2023-02-12T08:32:03.853Z,6.18
2023-02-12T08:34:36.512Z,6.85
2023-02-12T08:37:08.356Z,6.50
2023-02-12T08:39:37.604Z,6.78
2023-02-12T08:42:06.950Z,7.05
2023-02-12T08:44:36.537Z,6.13
2023-02-12T08:47:07.689Z,7.00
2023-02-12T08:49:37.337Z,6.93
2023-02-12T08:52:06.688Z,6.13
2023-02-12T08:54:35.946Z,6.45
2023-02-12T08:57:05.795Z,6.18
2023-02-12T08:59:35.168Z,6.40
2023-02-12T09:02:09.574Z,6.13
2023-02-12T09:04:38.960Z,6.45
2023-02-12T09:07:10.727Z,6.35
2023-02-12T09:09:40.165Z,6.25
2023-02-12T09:12:09.450Z,6.97
2023-02-12T09:14:38.764Z,6.43
2023-02-12T09:17:08.089Z,5.82
2023-02-12T09:19:37.933Z,5.68
2023-02-12T09:22:07.655Z,5.53
2023-02-12T09:24:39.808Z,5.20
2023-02-12T09:27:09.104Z,5.18
2023-02-12T09:29:38.531Z,5.43
2023-02-12T09:32:07.898Z,5.45
2023-02-12T09:34:39.036Z,5.78
2023-02-12T09:37:08.243Z,5.50
2023-02-12T09:39:37.612Z,4.88
2023-02-12T09:43:07.240Z,5.57
2023-02-12T09:46:02.065Z,6.05
2023-02-12T09:49:03.375Z,6.32
2023-02-12T09:51:33.894Z,5.05
2023-02-12T09:54:38.454Z,6.22
2023-02-12T09:57:26.466Z,4.85
2023-02-12T10:00:07.984Z,4.32
2023-02-12T10:02:42.693Z,4.63
2023-02-12T10:05:28.095Z,4.40
2023-02-12T10:08:41.059Z,5.68
2023-02-12T10:11:38.039Z,6.38
2023-02-12T10:14:28.835Z,4.50
2023-02-12T10:17:43.568Z,5.57
2023-02-12T10:20:24.451Z,4.93
2023-02-12T10:23:11.486Z,4.47
2023-02-12T10:26:12.695Z,4.80
2023-02-12T10:28:44.231Z,5.30
2023-02-12T10:31:36.333Z,4.95
2023-02-12T10:34:32.031Z,4.32
2023-02-12T10:37:11.171Z,4.75
2023-02-12T10:39:50.089Z,3.88
2023-02-12T10:42:40.681Z,5.20
2023-02-12T10:45:22.834Z,4.95
2023-02-12T10:48:11.384Z,5.85
2023-02-12T10:50:49.778Z,5.03
2023-02-12T10:53:49.519Z,4.60
2023-02-12T10:56:25.607Z,4.90
2023-02-12T10:59:03.546Z,4.60
2023-02-12T11:01:43.041Z,4.72
2023-02-12T11:04:36.074Z,5.38
2023-02-12T11:07:13.458Z,5.43
2023-02-12T11:09:48.511Z,5.40
2023-02-12T11:12:49.358Z,5.40
2023-02-12T11:15:23.428Z,5.18
2023-02-12T11:18:05.482Z,5.35
2023-02-12T11:21:03.461Z,5.35
2023-02-12T11:23:44.518Z,6.05
2023-02-12T11:26:22.537Z,5.95
2023-02-12T11:31:37.824Z,5.53
2023-02-12T11:34:23.195Z,5.93
2023-02-12T11:36:55.617Z,6.40
2023-02-12T11:39:39.618Z,6.93
2023-02-12T11:42:26.303Z,7.38
2023-02-12T11:45:01.056Z,7.13
2023-02-12T11:47:35.487Z,6.75
2023-02-12T11:50:34.452Z,6.78
2023-02-12T11:53:10.790Z,6.50
2023-02-12T11:55:42.730Z,6.40
2023-02-12T11:58:23.814Z,7.60
2023-02-12T12:01:10.750Z,6.85
2023-02-12T12:04:05.735Z,6.88
2023-02-12T12:06:51.750Z,7.68
2023-02-12T12:10:05.688Z,7.32
2023-02-12T12:12:44.478Z,7.80
2023-02-12T12:15:55.190Z,8.30
2023-02-12T12:19:19.259Z,8.27
2023-02-12T12:22:04.374Z,8.68
2023-02-12T12:24:46.476Z,8.23
2023-02-12T12:27:43.466Z,9.25
2023-02-12T12:30:39.935Z,8.97
2023-02-12T12:33:34.617Z,9.00
2023-02-12T12:36:27.296Z,8.93
2023-02-12T12:39:05.385Z,9.38
2023-02-12T12:45:07.099Z,9.48
2023-02-12T12:48:19.172Z,10.52
2023-02-12T12:51:14.608Z,13.25
2023-02-12T12:54:18.804Z,10.32
2023-02-12T12:57:02.508Z,12.23
2023-02-12T13:00:23.215Z,12.63
2023-02-12T13:03:26.376Z,13.10
2023-02-12T13:06:42.130Z,13.20
2023-02-12T13:09:45.692Z,14.07
2023-02-12T13:13:01.918Z,13.90
2023-02-12T13:15:41.464Z,13.77
2023-02-12T13:18:22.549Z,12.45
2023-02-12T13:21:37.515Z,13.50
2023-02-12T13:24:18.959Z,12.10
2023-02-12T13:26:58.780Z,13.23
2023-02-12T13:29:47.771Z,12.90
2023-02-12T13:32:47.303Z,13.27
2023-02-12T13:35:30.707Z,12.30
2023-02-12T13:38:02.080Z,11.95
2023-02-12T13:40:33.221Z,12.18
2023-02-12T13:43:39.833Z,12.35
2023-02-12T13:46:48.300Z,12.25
2023-02-12T13:49:30.088Z,12.85
2023-02-12T13:52:31.270Z,12.82
2023-02-12T13:55:40.701Z,14.30
2023-02-12T13:58:41.233Z,13.90
2023-02-12T14:01:15.793Z,14.55
2023-02-12T14:03:45.803Z,15.00
2023-02-12T14:06:25.973Z,14.63
2023-02-12T14:09:12.166Z,16.75
2023-02-12T14:11:55.227Z,15.80
2023-02-12T14:14:43.707Z,16.42
2023-02-12T14:17:31.817Z,15.63
2023-02-12T14:22:51.566Z,17.25
2023-02-12T14:25:26.571Z,14.98
2023-02-12T14:28:15.217Z,15.73
2023-02-12T14:30:44.424Z,15.63
2023-02-12T14:33:26.148Z,15.13
2023-02-12T14:36:43.741Z,15.73
2023-02-12T14:39:22.002Z,15.60
2023-02-12T14:42:11.647Z,15.25
2023-02-12T14:45:00.777Z,16.30
2023-02-12T14:47:33.028Z,16.10
2023-02-12T14:50:23.946Z,15.75
2023-02-12T14:53:18.002Z,15.48
2023-02-12T14:55:49.532Z,17.15
2023-02-12T14:58:25.390Z,16.73
2023-02-12T15:00:58.939Z,19.15
2023-02-12T15:03:59.231Z,17.13
2023-02-12T15:06:49.483Z,18.33
2023-02-12T15:09:37.507Z,17.42
2023-02-12T15:12:53.180Z,24.17
2023-02-12T15:15:55.763Z,19.73
2023-02-12T15:18:47.629Z,17.88
2023-02-12T15:21:26.666Z,16.88
2023-02-12T15:24:22.653Z,17.23
2023-02-12T15:26:56.572Z,16.95
2023-02-12T15:29:49.523Z,16.23
2023-02-12T15:32:28.670Z,17.65
2023-02-12T15:34:59.112Z,17.30
2023-02-12T15:37:33.461Z,16.90
2023-02-12T15:40:09.702Z,17.13
2023-02-12T15:42:42.618Z,16.73
2023-02-12T15:45:17.549Z,17.17
2023-02-12T15:47:58.733Z,16.60
2023-02-12T15:50:29.475Z,17.60
2023-02-12T15:52:59.426Z,19.75
2023-02-12T15:55:34.445Z,17.58
2023-02-12T15:58:04.376Z,17.67
2023-02-12T16:00:48.645Z,17.88
2023-02-12T16:03:42.433Z,17.20
2023-02-12T16:06:17.808Z,17.20
2023-02-12T16:09:05.077Z,17.67
2023-02-12T16:11:36.839Z,17.20
2023-02-12T16:14:24.097Z,18.73
2023-02-12T16:16:58.291Z,20.43
2023-02-12T16:19:30.191Z,19.30
2023-02-12T16:22:04.166Z,18.90
2023-02-12T16:24:40.549Z,19.45
2023-02-12T16:27:35.579Z,19.23
2023-02-12T16:30:24.721Z,20.10
2023-02-12T16:32:54.534Z,18.88
2023-02-12T16:35:35.414Z,18.33
2023-02-12T16:38:46.030Z,19.08
2023-02-12T16:42:07.328Z,19.85
2023-02-12T16:44:36.522Z,18.27
2023-02-12T16:47:05.999Z,19.45
2023-02-12T16:49:35.414Z,18.30
2023-02-12T16:52:39.857Z,19.90
2023-02-12T16:55:18.629Z,20.02
2023-02-12T16:57:47.868Z,19.63
2023-02-12T17:00:19.388Z,19.02
2023-02-12T17:02:48.602Z,19.98
2023-02-12T17:05:19.433Z,19.58
2023-02-12T17:07:48.583Z,18.90
2023-02-12T17:10:18.962Z,18.85
2023-02-12T17:12:53.793Z,19.50
2023-02-12T17:15:35.375Z,20.23
2023-02-12T17:18:04.628Z,20.23
2023-02-12T17:20:33.759Z,20.25
2023-02-12T17:23:02.958Z,18.38
2023-02-12T17:25:33.178Z,17.98
2023-02-12T17:28:02.647Z,19.25
2023-02-12T17:30:33.335Z,18.40
2023-02-12T17:33:03.409Z,18.60
2023-02-12T17:35:32.955Z,19.75
2023-02-12T17:38:02.404Z,19.17
2023-02-12T17:40:31.782Z,18.45
2023-02-12T17:43:00.986Z,18.75
2023-02-12T17:45:30.314Z,19.75
2023-02-12T17:48:00.146Z,20.00
2023-02-12T17:50:29.394Z,19.95
2023-02-12T17:52:58.591Z,20.48
2023-02-12T17:55:27.756Z,20.00
2023-02-12T17:57:58.063Z,20.00
2023-02-12T18:00:27.405Z,19.27
2023-02-12T18:02:56.584Z,20.73
2023-02-12T18:05:25.833Z,20.13
2023-02-12T18:07:55.436Z,20.30
2023-02-12T18:10:24.634Z,20.42
2023-02-12T18:12:53.833Z,20.48
2023-02-12T18:15:23.047Z,20.58
2023-02-12T18:17:52.273Z,21.00
2023-02-12T18:20:22.097Z,20.63
2023-02-12T18:22:51.267Z,20.65
2023-02-12T18:25:20.628Z,20.58
2023-02-12T18:27:49.862Z,20.42
2023-02-12T18:30:19.623Z,20.33
2023-02-12T18:32:49.467Z,21.58
2023-02-12T18:35:20.182Z,22.30
2023-02-12T18:37:49.263Z,23.23
2023-02-12T18:40:18.537Z,21.17
2023-02-12T18:42:47.748Z,21.17
2023-02-12T18:45:16.902Z,20.55
2023-02-12T18:47:46.176Z,22.73
2023-02-12T18:50:15.567Z,21.30
2023-02-12T18:52:44.628Z,21.98
2023-02-12T18:55:13.823Z,21.13
2023-02-12T18:57:42.904Z,22.17
2023-02-12T19:00:12.782Z,21.05
2023-02-12T19:02:41.908Z,21.92
2023-02-12T19:05:11.651Z,21.35
2023-02-12T19:07:40.870Z,21.98
2023-02-12T19:10:10.713Z,22.58
2023-02-12T19:12:40.078Z,22.27
2023-02-12T19:15:09.840Z,22.52
2023-02-12T19:17:38.951Z,20.48
2023-02-12T19:20:09.019Z,22.45
2023-02-12T19:22:39.373Z,21.80
2023-02-12T19:25:09.150Z,20.98
2023-02-12T19:27:38.606Z,22.30
2023-02-12T19:30:09.374Z,22.58
2023-02-12T19:32:39.354Z,21.92
2023-02-12T19:35:10.542Z,22.30
2023-02-12T19:37:39.773Z,21.27
2023-02-12T19:40:10.084Z,21.00
2023-02-12T19:42:39.576Z,21.17
2023-02-12T19:45:09.567Z,21.08
2023-02-12T19:47:38.838Z,21.98
2023-02-12T19:50:09.645Z,23.13
2023-02-12T19:52:39.049Z,21.88
2023-02-12T19:55:08.538Z,22.40
2023-02-12T19:57:39.611Z,21.52
2023-02-12T20:00:10.109Z,22.27
2023-02-12T20:02:39.393Z,21.05
2023-02-12T20:05:09.232Z,24.70
2023-02-12T20:07:38.473Z,23.55
2023-02-12T20:10:08.623Z,24.13
2023-02-12T20:12:41.053Z,23.80
2023-02-12T20:15:10.910Z,22.02
2023-02-12T20:17:40.175Z,23.83
2023-02-12T20:20:12.207Z,23.20
2023-02-12T20:22:41.847Z,23.33
2023-02-12T20:25:11.399Z,22.25
2023-02-12T20:27:40.708Z,22.25
2023-02-12T20:30:10.825Z,23.10
2023-02-12T20:32:40.131Z,24.13
2023-02-12T20:35:09.625Z,29.42
2023-02-12T20:37:39.127Z,29.58
2023-02-12T20:40:09.493Z,28.85
2023-02-12T20:42:39.026Z,28.35
2023-02-12T20:45:09.106Z,28.15
2023-02-12T20:47:38.283Z,30.15
2023-02-12T20:50:08.695Z,27.30
2023-02-12T20:52:38.768Z,28.23
2023-02-12T20:55:08.418Z,27.50
2023-02-12T20:57:37.789Z,33.60
2023-02-12T21:00:08.447Z,33.13
2023-02-12T21:02:37.703Z,35.40
2023-02-12T21:05:07.558Z,35.65
2023-02-12T21:07:37.106Z,35.42
2023-02-12T21:10:07.064Z,27.08
2023-02-12T21:12:36.391Z,25.17
2023-02-12T21:15:06.208Z,24.27
2023-02-12T21:17:35.808Z,24.65
2023-02-12T21:20:05.404Z,26.00
2023-02-12T21:22:34.706Z,25.70
2023-02-12T21:25:03.932Z,26.02
2023-02-12T21:27:33.297Z,26.30
2023-02-12T21:30:02.583Z,27.20
2023-02-12T21:32:33.306Z,28.40
2023-02-12T21:35:03.082Z,28.92
2023-02-12T21:37:32.379Z,26.65
2023-02-12T21:40:01.603Z,28.15
2023-02-12T21:42:31.174Z,25.30
2023-02-12T21:45:03.097Z,25.23
2023-02-12T21:47:32.360Z,26.75
2023-02-12T21:50:01.748Z,25.02
2023-02-12T21:52:30.955Z,23.63
2023-02-12T21:55:00.219Z,26.25
2023-02-12T21:57:29.464Z,26.92
2023-02-12T21:59:58.673Z,25.90
2023-02-12T22:02:27.983Z,25.08
2023-02-12T22:04:57.188Z,25.60
2023-02-12T22:07:26.526Z,26.05
2023-02-12T22:09:58.364Z,25.33
2023-02-12T22:12:27.657Z,25.92
2023-02-12T22:14:56.899Z,26.15
2023-02-12T22:17:26.189Z,26.70
2023-02-12T22:19:55.448Z,25.90
2023-02-12T22:22:24.845Z,25.77
2023-02-12T22:24:54.221Z,26.70
2023-02-12T22:27:23.466Z,26.15
2023-02-12T22:29:53.896Z,27.85
2023-02-12T22:32:23.264Z,29.25
2023-02-12T22:34:52.929Z,28.20
2023-02-12T22:37:22.296Z,29.65
2023-02-12T22:39:51.395Z,29.75
2023-02-12T22:42:20.468Z,29.67
2023-02-12T22:44:49.676Z,28.30
2023-02-12T22:47:18.836Z,30.23
2023-02-12T22:49:47.951Z,29.65
2023-02-12T22:52:17.092Z,31.48
2023-02-12T22:54:46.692Z,32.10
2023-02-12T22:57:18.269Z,31.13
2023-02-12T22:59:49.476Z,36.60
2023-02-12T23:02:18.627Z,30.70
2023-02-12T23:04:47.739Z,31.38
2023-02-12T23:07:16.813Z,36.60
2023-02-12T23:09:45.908Z,34.88
2023-02-12T23:12:15.016Z,32.92
2023-02-12T23:14:44.101Z,31.58
2023-02-12T23:17:13.289Z,31.85
2023-02-12T23:19:42.387Z,30.58
2023-02-12T23:22:11.441Z,31.83
2023-02-12T23:24:40.587Z,31.08
2023-02-12T23:27:11.938Z,31.88
2023-02-12T23:29:41.579Z,30.38
2023-02-12T23:32:10.656Z,30.75
2023-02-12T23:34:41.617Z,31.55
2023-02-12T23:37:11.086Z,32.08
2023-02-12T23:39:40.296Z,34.45
2023-02-12T23:42:09.554Z,34.47
2023-02-12T23:44:39.804Z,35.03
2023-02-12T23:47:08.943Z,35.78
2023-02-12T23:49:38.929Z,37.80
2023-02-12T23:52:08.070Z,36.72
2023-02-12T23:54:37.316Z,37.10
2023-02-12T23:57:06.582Z,37.55
2023-02-12T23:59:35.945Z,36.22
